createdAt,value
2023-02-11T00:02:13.713Z,71.00
2023-02-11T00:04:40.344Z,74.95
2023-02-11T00:07:07.073Z,72.68
2023-02-11T00:09:33.752Z,73.60
2023-02-11T00:12:00.375Z,82.15
2023-02-11T00:14:27.341Z,79.40
2023-02-11T00:16:54.010Z,72.13
2023-02-11T00:19:20.642Z,70.03
2023-02-11T00:21:47.277Z,71.50
2023-02-11T00:24:13.892Z,67.43
2023-02-11T00:26:40.532Z,80.78
2023-02-11T00:29:07.190Z,79.95
2023-02-11T00:31:34.136Z,77.63
2023-02-11T00:34:02.209Z,76.93
2023-02-11T00:36:29.108Z,76.30
2023-02-11T00:38:56.682Z,83.07
2023-02-11T00:41:23.542Z,84.97
2023-02-11T00:43:50.552Z,80.78
2023-02-11T00:46:17.292Z,81.68
2023-02-11T00:48:44.040Z,75.80
2023-02-11T00:51:11.275Z,82.32
2023-02-11T00:53:37.937Z,77.13
2023-02-11T00:56:04.971Z,87.70
2023-02-11T00:58:31.653Z,76.15
2023-02-11T01:00:58.344Z,79.13
2023-02-11T01:03:25.130Z,78.53
2023-02-11T01:05:52.203Z,81.15
2023-02-11T01:08:19.243Z,85.43
2023-02-11T01:10:45.928Z,84.22
2023-02-11T01:13:12.602Z,83.03
2023-02-11T01:15:39.310Z,74.13
2023-02-11T01:18:06.012Z,83.70
2023-02-11T01:20:32.713Z,84.15
2023-02-11T01:22:59.364Z,81.30
2023-02-11T01:25:26.215Z,78.78
2023-02-11T01:27:53.103Z,75.90
2023-02-11T01:30:19.773Z,82.35
2023-02-11T01:32:46.653Z,87.10
2023-02-11T01:35:13.309Z,87.07
2023-02-11T01:37:39.965Z,82.70
2023-02-11T01:40:10.753Z,79.57
2023-02-11T01:42:37.430Z,87.30
2023-02-11T01:45:42.088Z,77.30
2023-02-11T01:48:09.449Z,86.18
2023-02-11T01:50:36.297Z,86.40
2023-02-11T01:53:22.973Z,79.13
2023-02-11T01:56:08.523Z,92.05
2023-02-11T01:58:35.168Z,94.40
2023-02-11T02:01:03.033Z,81.00
2023-02-11T02:03:29.690Z,86.65
2023-02-11T02:06:03.179Z,87.18
2023-02-11T02:08:39.683Z,85.60
2023-02-11T02:11:06.316Z,85.47
2023-02-11T02:13:34.072Z,92.38
2023-02-11T02:16:06.689Z,87.35
2023-02-11T02:18:56.667Z,88.43
2023-02-11T02:21:56.672Z,85.75
2023-02-11T02:24:28.320Z,84.68
2023-02-11T02:27:13.011Z,86.18
2023-02-11T02:30:03.271Z,83.45
2023-02-11T02:32:40.231Z,86.18
2023-02-11T02:35:34.659Z,78.97
2023-02-11T02:38:54.029Z,96.18
2023-02-11T02:41:31.724Z,76.32
2023-02-11T02:43:58.350Z,83.57
2023-02-11T02:46:27.209Z,90.63
2023-02-11T02:48:54.107Z,84.88
2023-02-11T02:51:44.229Z,91.85
2023-02-11T02:54:43.356Z,90.10
2023-02-11T02:57:15.931Z,86.25
2023-02-11T02:59:57.968Z,91.10
2023-02-11T03:02:58.446Z,84.97
2023-02-11T03:05:35.013Z,90.00
2023-02-11T03:08:09.189Z,88.95
2023-02-11T03:13:07.281Z,85.28
2023-02-11T03:15:37.824Z,90.47
2023-02-11T03:18:04.604Z,88.13
2023-02-11T03:20:31.439Z,94.80
2023-02-11T03:23:19.081Z,87.15
2023-02-11T03:25:56.098Z,80.78
2023-02-11T03:28:25.601Z,91.18
2023-02-11T03:31:13.783Z,97.97
2023-02-11T03:34:04.155Z,84.60
2023-02-11T03:36:39.244Z,90.00
2023-02-11T03:39:06.149Z,86.97
2023-02-11T03:41:32.768Z,89.55
2023-02-11T03:43:59.414Z,89.60
2023-02-11T03:46:33.885Z,84.75
2023-02-11T03:49:06.608Z,91.32
2023-02-11T03:51:33.330Z,88.45
2023-02-11T03:54:01.584Z,76.93
2023-02-11T03:56:30.353Z,87.88
2023-02-11T03:58:57.391Z,84.55
2023-02-11T04:01:24.084Z,86.50
2023-02-11T04:03:50.807Z,85.63
2023-02-11T04:06:17.460Z,87.63
2023-02-11T04:08:44.089Z,88.57
2023-02-11T04:11:10.709Z,80.93
2023-02-11T04:13:37.337Z,81.63
2023-02-11T04:16:04.057Z,85.90
2023-02-11T04:18:30.712Z,80.45
2023-02-11T04:20:57.329Z,81.50
2023-02-11T04:23:23.954Z,81.70
2023-02-11T04:25:50.945Z,79.82
2023-02-11T04:28:17.862Z,87.47
2023-02-11T04:30:44.531Z,86.88
2023-02-11T04:33:11.228Z,85.50
2023-02-11T04:35:37.884Z,78.15
2023-02-11T04:38:04.544Z,83.60
2023-02-11T04:40:31.141Z,78.63
2023-02-11T04:42:57.741Z,77.90
2023-02-11T04:45:24.387Z,79.35
2023-02-11T04:47:51.092Z,79.63
2023-02-11T04:50:17.718Z,82.22
2023-02-11T04:52:44.349Z,83.75
2023-02-11T04:55:10.942Z,82.05
2023-02-11T04:57:37.570Z,81.95
2023-02-11T05:00:04.770Z,81.68
2023-02-11T05:02:31.406Z,87.47
2023-02-11T05:04:58.053Z,78.93
2023-02-11T05:07:24.897Z,85.78
2023-02-11T05:09:51.507Z,75.63
2023-02-11T05:12:18.196Z,77.10
2023-02-11T05:14:44.831Z,80.35
2023-02-11T05:17:11.464Z,84.57
2023-02-11T05:19:38.092Z,81.88
2023-02-11T05:22:04.705Z,83.40
2023-02-11T05:24:32.348Z,76.57
2023-02-11T05:26:59.076Z,79.28
2023-02-11T05:29:25.708Z,89.43
2023-02-11T05:31:52.524Z,80.57
2023-02-11T05:34:19.173Z,82.03
2023-02-11T05:36:45.791Z,75.70
2023-02-11T05:39:12.419Z,77.90
2023-02-11T05:41:39.057Z,77.35
2023-02-11T05:44:05.689Z,78.13
2023-02-11T05:46:32.351Z,76.70
2023-02-11T05:48:59.016Z,84.20
2023-02-11T05:51:25.681Z,75.10
2023-02-11T05:53:52.596Z,78.68
2023-02-11T05:56:19.228Z,82.40
2023-02-11T05:58:45.952Z,84.65
2023-02-11T06:01:13.579Z,79.45
2023-02-11T06:03:40.285Z,75.80
2023-02-11T06:06:11.457Z,76.70
2023-02-11T06:08:39.453Z,78.57
2023-02-11T06:11:06.159Z,80.20
2023-02-11T06:13:32.815Z,75.95
2023-02-11T06:16:00.397Z,72.65
2023-02-11T06:18:27.047Z,72.18
2023-02-11T06:20:53.746Z,73.65
2023-02-11T06:23:20.714Z,73.55
2023-02-11T06:25:47.327Z,72.80
2023-02-11T06:28:13.990Z,81.13
2023-02-11T06:30:40.807Z,76.35
2023-02-11T06:33:08.836Z,74.90
2023-02-11T06:35:36.588Z,73.07
2023-02-11T06:38:03.224Z,78.32
2023-02-11T06:40:29.838Z,79.65
2023-02-11T06:42:56.698Z,77.47
2023-02-11T06:45:23.360Z,79.30
2023-02-11T06:47:51.515Z,77.78
2023-02-11T06:50:18.434Z,73.28
2023-02-11T06:52:45.320Z,75.78
2023-02-11T06:55:12.229Z,77.78
2023-02-11T06:57:39.108Z,79.55
2023-02-11T07:00:06.438Z,78.80
2023-02-11T07:02:33.350Z,75.55
2023-02-11T07:05:00.321Z,77.95
2023-02-11T07:07:27.591Z,74.88
2023-02-11T07:09:54.479Z,74.07
2023-02-11T07:12:21.148Z,89.82
2023-02-11T07:14:47.786Z,71.32
2023-02-11T07:17:14.568Z,83.93
2023-02-11T07:19:41.305Z,74.47
2023-02-11T07:22:08.301Z,80.10
2023-02-11T07:24:35.238Z,84.55
2023-02-11T07:27:01.914Z,82.63
2023-02-11T07:29:28.598Z,82.07
2023-02-11T07:31:55.311Z,75.82
2023-02-11T07:34:22.149Z,73.85
2023-02-11T07:36:49.056Z,73.13
2023-02-11T07:39:15.763Z,78.38
2023-02-11T07:41:43.691Z,81.78
2023-02-11T07:44:10.336Z,74.93
2023-02-11T07:46:45.573Z,72.18
2023-02-11T07:49:12.584Z,72.60
2023-02-11T07:51:39.389Z,75.55
2023-02-11T07:54:06.039Z,78.50
2023-02-11T07:56:33.445Z,75.82
2023-02-11T07:59:04.065Z,72.78
2023-02-11T08:01:30.884Z,76.50
2023-02-11T08:04:01.280Z,75.30
2023-02-11T08:06:30.092Z,78.47
2023-02-11T08:08:57.036Z,78.55
2023-02-11T08:11:25.211Z,80.63
2023-02-11T08:13:52.145Z,74.80
2023-02-11T08:16:20.854Z,74.43
2023-02-11T08:18:47.711Z,77.97
2023-02-11T08:21:14.597Z,69.03
2023-02-11T08:23:41.763Z,69.10
2023-02-11T08:26:10.319Z,77.68
2023-02-11T08:28:37.977Z,73.00
2023-02-11T08:31:09.120Z,76.32
2023-02-11T08:33:35.858Z,75.57
2023-02-11T08:36:07.446Z,71.45
2023-02-11T08:38:34.112Z,78.32
2023-02-11T08:41:01.021Z,78.07
2023-02-11T08:43:27.690Z,76.00
2023-02-11T08:45:54.420Z,70.13
2023-02-11T08:48:21.536Z,79.68
2023-02-11T08:50:48.457Z,74.97
2023-02-11T08:53:15.340Z,74.28
2023-02-11T08:55:49.124Z,81.68
2023-02-11T08:58:18.781Z,71.70
2023-02-11T09:00:46.144Z,65.50
2023-02-11T09:03:13.509Z,77.85
2023-02-11T09:05:44.866Z,69.05
2023-02-11T09:08:11.711Z,75.90
2023-02-11T09:10:38.495Z,72.95
2023-02-11T09:13:05.421Z,78.13
2023-02-11T09:15:43.273Z,70.65
2023-02-11T09:18:18.589Z,68.75
2023-02-11T09:20:45.213Z,79.35
2023-02-11T09:23:12.471Z,73.57
2023-02-11T09:25:40.798Z,75.65
2023-02-11T09:28:08.233Z,67.88
2023-02-11T09:30:36.650Z,74.40
2023-02-11T09:33:03.540Z,69.65
2023-02-11T09:35:30.306Z,71.53
2023-02-11T09:37:56.921Z,69.85
2023-02-11T09:40:23.560Z,66.20
2023-02-11T09:43:11.653Z,69.47
2023-02-11T09:45:38.342Z,70.72
2023-02-11T09:48:10.660Z,68.53
2023-02-11T09:50:40.039Z,73.38
2023-02-11T09:53:25.856Z,62.55
2023-02-11T09:55:56.672Z,69.85
2023-02-11T09:58:28.929Z,73.75
2023-02-11T10:01:02.309Z,65.20
2023-02-11T10:03:59.764Z,65.37
2023-02-11T10:06:33.540Z,70.03
2023-02-11T10:09:21.560Z,64.85
2023-02-11T10:12:19.013Z,64.95
2023-02-11T10:14:58.406Z,63.83
2023-02-11T10:17:30.957Z,60.15
2023-02-11T10:20:08.269Z,64.72
2023-02-11T10:22:41.324Z,62.35
2023-02-11T10:25:17.757Z,65.40
2023-02-11T10:27:44.538Z,65.40
2023-02-11T10:30:34.055Z,64.07
2023-02-11T10:33:13.193Z,61.42
2023-02-11T10:35:40.259Z,68.97
2023-02-11T10:38:08.555Z,73.90
2023-02-11T10:40:35.207Z,69.22
2023-02-11T10:43:04.762Z,67.88
2023-02-11T10:45:36.049Z,67.10
2023-02-11T10:48:07.105Z,68.93
2023-02-11T10:50:34.974Z,66.22
2023-02-11T10:53:20.551Z,73.85
2023-02-11T10:55:57.233Z,63.83
2023-02-11T10:58:27.350Z,72.53
2023-02-11T11:00:55.519Z,77.13
2023-02-11T11:03:24.096Z,70.25
2023-02-11T11:06:00.898Z,70.10
2023-02-11T11:08:47.981Z,75.47
2023-02-11T11:11:16.477Z,71.85
2023-02-11T11:13:55.797Z,72.55
2023-02-11T11:16:29.304Z,74.18
2023-02-11T11:19:08.221Z,74.22
2023-02-11T11:21:45.938Z,66.57
2023-02-11T11:24:40.302Z,65.97
2023-02-11T11:27:06.958Z,69.93
2023-02-11T11:29:38.950Z,69.70
2023-02-11T11:32:13.150Z,69.95
2023-02-11T11:37:34.798Z,59.70
2023-02-11T11:40:13.584Z,75.22
2023-02-11T11:42:40.617Z,65.70
2023-02-11T11:45:34.029Z,71.40
2023-02-11T11:48:19.503Z,63.22
2023-02-11T11:50:57.261Z,62.30
2023-02-11T11:53:31.380Z,68.15
2023-02-11T11:56:03.984Z,72.50
2023-02-11T11:58:31.171Z,64.15
2023-02-11T12:01:15.855Z,65.38
2023-02-11T12:04:06.309Z,69.32
2023-02-11T12:06:59.993Z,66.05
2023-02-11T12:09:45.624Z,60.85
2023-02-11T12:12:32.710Z,64.53
2023-02-11T12:15:08.173Z,64.20
2023-02-11T12:17:57.252Z,65.20
2023-02-11T12:20:32.850Z,65.75
2023-02-11T12:23:15.524Z,69.95
2023-02-11T12:25:53.956Z,68.80
2023-02-11T12:28:37.493Z,75.53
2023-02-11T12:31:23.516Z,69.47
2023-02-11T12:33:50.141Z,65.45
2023-02-11T12:36:54.373Z,69.88
2023-02-11T12:39:35.438Z,71.00
2023-02-11T12:42:52.849Z,74.45
2023-02-11T12:45:27.325Z,70.97
2023-02-11T12:48:16.991Z,68.88
2023-02-11T12:51:04.667Z,73.15
2023-02-11T12:53:59.072Z,68.30
2023-02-11T12:56:50.142Z,65.97
2023-02-11T12:59:38.628Z,65.72
2023-02-11T13:02:12.482Z,70.65
2023-02-11T13:04:40.278Z,71.95
2023-02-11T13:07:13.921Z,62.90
2023-02-11T13:09:51.496Z,68.00
2023-02-11T13:12:36.624Z,67.60
2023-02-11T13:15:06.375Z,70.45
2023-02-11T13:17:38.585Z,63.35
2023-02-11T13:20:18.504Z,68.32
2023-02-11T13:22:50.597Z,67.93
2023-02-11T13:25:29.435Z,68.95
2023-02-11T13:28:04.426Z,70.47
2023-02-11T13:30:34.524Z,68.90
2023-02-11T13:33:01.155Z,70.78
2023-02-11T13:35:38.571Z,70.88
2023-02-11T13:38:18.471Z,74.82
2023-02-11T13:40:48.254Z,69.85
2023-02-11T13:43:23.085Z,76.78
2023-02-11T13:45:50.366Z,72.13
2023-02-11T13:48:27.354Z,68.28
2023-02-11T13:50:56.148Z,71.00
2023-02-11T13:53:22.746Z,73.53
2023-02-11T13:55:51.284Z,70.40
2023-02-11T13:58:27.930Z,69.38
2023-02-11T14:00:55.022Z,66.63
2023-02-11T14:03:42.707Z,64.65
2023-02-11T14:06:28.126Z,63.15
2023-02-11T14:09:10.277Z,59.67
2023-02-11T14:11:55.295Z,63.08
2023-02-11T14:14:31.651Z,61.97
2023-02-11T14:16:58.599Z,57.08
2023-02-11T14:19:38.532Z,63.33
2023-02-11T14:22:06.321Z,62.08
2023-02-11T14:24:32.917Z,63.55
2023-02-11T14:27:05.580Z,61.45
2023-02-11T14:29:53.777Z,64.88
2023-02-11T14:32:20.408Z,69.75
2023-02-11T14:35:10.396Z,60.80
2023-02-11T14:37:50.312Z,70.28
2023-02-11T14:40:27.869Z,60.70
2023-02-11T14:42:54.735Z,63.50
2023-02-11T14:45:27.417Z,60.35
2023-02-11T14:48:05.844Z,63.58
2023-02-11T14:50:53.636Z,59.80
2023-02-11T14:53:22.835Z,58.15
2023-02-11T14:55:52.401Z,64.82
2023-02-11T14:58:25.865Z,63.72
2023-02-11T15:00:57.739Z,60.13
2023-02-11T15:03:38.888Z,57.53
2023-02-11T15:06:16.621Z,56.15
2023-02-11T15:08:46.081Z,57.00
2023-02-11T15:11:13.801Z,57.22
2023-02-11T15:13:47.540Z,61.83
2023-02-11T15:16:24.545Z,60.35
2023-02-11T15:19:01.165Z,55.47
2023-02-11T15:21:32.389Z,53.15
2023-02-11T15:24:06.002Z,53.60
2023-02-11T15:26:32.780Z,59.92
2023-02-11T15:29:14.941Z,61.92
2023-02-11T15:31:41.777Z,64.38
2023-02-11T15:34:09.263Z,51.50
2023-02-11T15:36:36.417Z,64.55
2023-02-11T15:39:18.983Z,57.42
2023-02-11T15:41:45.636Z,59.58
2023-02-11T15:44:28.907Z,55.83
2023-02-11T15:46:55.560Z,59.90
2023-02-11T15:49:23.448Z,57.35
2023-02-11T15:51:51.260Z,54.58
2023-02-11T15:54:22.654Z,62.92
2023-02-11T15:56:52.523Z,58.83
2023-02-11T15:59:30.649Z,60.92
2023-02-11T16:01:58.564Z,60.22
2023-02-11T16:04:26.380Z,65.28
2023-02-11T16:06:54.346Z,65.07
2023-02-11T16:09:27.509Z,63.00
2023-02-11T16:11:56.464Z,59.88
2023-02-11T16:14:32.848Z,57.00
2023-02-11T16:17:05.587Z,66.45
2023-02-11T16:19:32.964Z,70.72
2023-02-11T16:22:01.027Z,59.65
2023-02-11T16:24:29.739Z,64.05
2023-02-11T16:27:00.642Z,63.95
2023-02-11T16:29:29.707Z,69.30
2023-02-11T16:32:15.928Z,70.13
2023-02-11T16:34:42.594Z,65.88
2023-02-11T16:37:09.528Z,65.82
2023-02-11T16:39:36.386Z,69.70
2023-02-11T16:42:05.230Z,67.57
2023-02-11T16:44:34.057Z,72.03
2023-02-11T16:47:01.358Z,64.55
2023-02-11T16:49:30.031Z,61.10
2023-02-11T16:52:04.131Z,63.83
2023-02-11T16:54:31.428Z,61.58
2023-02-11T16:56:58.160Z,55.08
2023-02-11T16:59:24.921Z,54.03
2023-02-11T17:01:52.288Z,63.22
2023-02-11T17:04:26.619Z,59.50
2023-02-11T17:06:53.991Z,54.83
2023-02-11T17:09:28.350Z,64.50
2023-02-11T17:11:56.446Z,79.72
2023-02-11T17:14:23.076Z,69.50
2023-02-11T17:16:49.837Z,60.88
2023-02-11T17:19:20.752Z,123.32
2023-02-11T17:21:48.940Z,74.82
2023-02-11T17:24:15.664Z,72.20
2023-02-11T17:26:42.826Z,60.25
2023-02-11T17:29:11.166Z,67.63
2023-02-11T17:31:38.874Z,61.22
2023-02-11T17:34:05.605Z,59.10
2023-02-11T17:36:33.262Z,54.00
2023-02-11T17:39:00.743Z,49.80
2023-02-11T17:41:27.659Z,62.70
2023-02-11T17:43:54.358Z,50.97
2023-02-11T17:46:21.013Z,53.25
2023-02-11T17:48:47.688Z,66.38
2023-02-11T17:51:24.003Z,76.25
2023-02-11T17:53:51.227Z,57.97
2023-02-11T17:56:17.912Z,51.60
2023-02-11T17:58:44.847Z,49.58
2023-02-11T18:01:11.466Z,46.85
2023-02-11T18:03:38.117Z,42.45
2023-02-11T18:06:06.885Z,44.88
2023-02-11T18:08:34.690Z,51.88
2023-02-11T18:11:01.411Z,52.10
2023-02-11T18:13:28.459Z,46.72
2023-02-11T18:15:55.735Z,53.92
2023-02-11T18:18:22.416Z,53.65
2023-02-11T18:20:59.189Z,51.67
2023-02-11T18:23:25.874Z,46.20
2023-02-11T18:25:52.766Z,53.38
2023-02-11T18:28:20.127Z,51.58
2023-02-11T18:30:46.819Z,59.78
2023-02-11T18:33:14.517Z,55.35
2023-02-11T18:35:42.046Z,51.03
2023-02-11T18:38:09.171Z,60.53
2023-02-11T18:40:39.836Z,57.58
2023-02-11T18:43:07.329Z,62.10
2023-02-11T18:45:34.156Z,52.13
2023-02-11T18:48:09.316Z,53.83
2023-02-11T18:50:35.993Z,52.97
2023-02-11T18:53:05.658Z,60.97
2023-02-11T18:55:34.225Z,54.72
2023-02-11T18:58:01.570Z,57.85
2023-02-11T19:00:28.316Z,55.42
2023-02-11T19:02:57.543Z,56.83
2023-02-11T19:05:28.548Z,55.70
2023-02-11T19:07:56.484Z,61.65
2023-02-11T19:10:23.946Z,56.00
2023-02-11T19:12:53.554Z,56.50
2023-02-11T19:15:20.467Z,66.20
2023-02-11T19:17:47.082Z,73.50
2023-02-11T19:20:13.699Z,66.30
2023-02-11T19:22:40.394Z,64.97
2023-02-11T19:25:07.246Z,65.00
2023-02-11T19:27:36.604Z,67.00
2023-02-11T19:30:04.108Z,63.92
2023-02-11T19:32:31.258Z,63.38
2023-02-11T19:35:00.368Z,69.97
2023-02-11T19:37:27.005Z,69.05
2023-02-11T19:39:53.643Z,63.85
2023-02-11T19:42:25.836Z,57.58
2023-02-11T19:44:53.796Z,59.05
2023-02-11T19:47:26.668Z,67.13
2023-02-11T19:49:53.795Z,61.28
2023-02-11T19:52:20.479Z,64.93
2023-02-11T19:54:47.131Z,67.78
2023-02-11T19:57:13.745Z,61.90
2023-02-11T19:59:43.402Z,61.60
2023-02-11T20:02:11.543Z,65.60
2023-02-11T20:04:38.203Z,61.13
2023-02-11T20:07:04.902Z,75.90
2023-02-11T20:09:31.790Z,69.13
2023-02-11T20:11:58.947Z,70.38
2023-02-11T20:14:27.870Z,72.47
2023-02-11T20:16:57.372Z,72.70
2023-02-11T20:19:24.071Z,67.07
2023-02-11T20:21:53.432Z,63.50
2023-02-11T20:24:23.590Z,68.72
2023-02-11T20:26:55.544Z,63.22
2023-02-11T20:29:22.738Z,67.72
2023-02-11T20:31:51.074Z,66.45
2023-02-11T20:34:18.394Z,65.70
2023-02-11T20:36:51.389Z,59.88
2023-02-11T20:39:18.572Z,64.13
2023-02-11T20:41:46.032Z,71.78
2023-02-11T20:44:12.878Z,62.25
2023-02-11T20:46:41.292Z,61.10
2023-02-11T20:49:09.658Z,58.72
2023-02-11T20:51:37.208Z,61.58
2023-02-11T20:54:04.083Z,60.08
2023-02-11T20:56:34.392Z,57.42
2023-02-11T20:59:02.287Z,59.13
2023-02-11T21:01:32.880Z,62.13
2023-02-11T21:04:04.711Z,63.33
2023-02-11T21:06:36.505Z,64.68
2023-02-11T21:09:04.665Z,60.38
2023-02-11T21:11:31.308Z,65.55
2023-02-11T21:13:58.246Z,61.85
2023-02-11T21:16:24.995Z,69.60
2023-02-11T21:18:52.173Z,65.47
2023-02-11T21:21:19.688Z,89.70
2023-02-11T21:23:46.688Z,97.35
2023-02-11T21:26:13.824Z,109.18
2023-02-11T21:28:41.246Z,118.22
2023-02-11T21:31:08.021Z,107.57
2023-02-11T21:33:35.040Z,81.03
2023-02-11T21:36:02.622Z,81.65
2023-02-11T21:38:29.504Z,87.32
2023-02-11T21:40:56.472Z,93.68
2023-02-11T21:43:23.364Z,87.88
2023-02-11T21:45:50.637Z,78.30
2023-02-11T21:48:17.421Z,76.43
2023-02-11T21:50:45.424Z,83.68
2023-02-11T21:53:12.469Z,78.82
2023-02-11T21:55:39.365Z,76.43
2023-02-11T21:58:06.220Z,74.70
2023-02-11T22:00:33.077Z,76.07
2023-02-11T22:02:59.683Z,72.65
2023-02-11T22:05:26.331Z,68.63
2023-02-11T22:07:52.947Z,70.35
2023-02-11T22:10:19.680Z,65.30
2023-02-11T22:12:46.316Z,83.53
2023-02-11T22:15:13.134Z,75.75
2023-02-11T22:17:39.803Z,70.28
2023-02-11T22:20:07.155Z,72.38
2023-02-11T22:22:33.781Z,72.72
2023-02-11T22:25:01.892Z,71.45
2023-02-11T22:27:28.508Z,75.57
2023-02-11T22:29:55.125Z,75.65
2023-02-11T22:32:21.764Z,69.75
2023-02-11T22:34:48.376Z,70.18
2023-02-11T22:37:15.040Z,65.65
2023-02-11T22:39:42.666Z,73.60
2023-02-11T22:42:09.340Z,71.90
2023-02-11T22:44:37.058Z,67.55
2023-02-11T22:47:03.744Z,67.47
2023-02-11T22:49:32.434Z,73.13
2023-02-11T22:51:59.635Z,64.20
2023-02-11T22:54:26.521Z,74.82
2023-02-11T22:56:53.561Z,80.00
2023-02-11T22:59:20.769Z,75.90
2023-02-11T23:01:47.529Z,86.72
2023-02-11T23:04:16.116Z,80.18
2023-02-11T23:06:43.145Z,72.47
2023-02-11T23:09:10.595Z,72.65
2023-02-11T23:11:37.240Z,76.20
2023-02-11T23:14:04.173Z,74.05
2023-02-11T23:16:32.363Z,74.07
2023-02-11T23:18:59.784Z,66.63
2023-02-11T23:21:28.445Z,80.85
2023-02-11T23:23:56.376Z,76.80
2023-02-11T23:26:23.286Z,74.40
2023-02-11T23:28:49.918Z,73.45
2023-02-11T23:31:23.620Z,78.25
2023-02-11T23:33:50.392Z,75.28
2023-02-11T23:36:17.425Z,80.60
2023-02-11T23:38:44.125Z,82.50
2023-02-11T23:41:10.814Z,80.93
2023-02-11T23:43:37.528Z,81.95
2023-02-11T23:46:04.637Z,80.10
2023-02-11T23:48:31.543Z,79.15
2023-02-11T23:50:58.179Z,83.97
2023-02-11T23:53:24.861Z,81.80
2023-02-11T23:55:51.492Z,86.35
2023-02-11T23:58:18.103Z,83.65
